Avondale, LA

2:13 PM CDT on May 24, 2015 (GMT -0500)
Gordon Ave. | | Change Station
CLOSE
Current Station
Personal Weather Station
Location: Harahan, LA
Elevation: 20 ft
Nearby Weather Stations
Active Advisory: Tornado Watch

Elev 20 ft 29.94 °N, 90.20 °W | Updated 8 seconds ago

Mostly Cloudy
Mostly Cloudy
88.2 °F
Feels Like 92 °F
N
3.1
Wind Variable Wind from WSW
Gusts 3.1 mph

Today
High -- | Low -- °F
--% Chance of Precip.
Yesterday
High -- | Low -- °F
Precip. -- in
6:03 AM 7:52 PM
Waxing Crescent, 41% visible
Pressure 30.06 in
Visibility 10.0 miles
Clouds Scattered Clouds 3000 ft
Mostly Cloudy 3800 ft
Mostly Cloudy 25000 ft
Heat Index 92 °F
Dew Point 70 °F
Humidity 52%
Rainfall 0.00 in
Snow Depth Not available.
UV 0.0 out of 12
Pollen 4.60 out of 12
Air Quality Not available.
Flu Activity Sporadic
METAR KMSY 241853Z 17019G27KT 10SM SCT030 BKN038 BKN250 30/22 A3006

More Conditions Fewer Conditions

Pressure 30.06 in
Visibility 10.0 miles
Clouds Scattered Clouds 3000 ft
Mostly Cloudy 3800 ft
Mostly Cloudy 25000 ft
Heat Index 92 °F
Dew Point 70 °F
Humidity 52%
Rainfall 0.00 in
Snow Depth Not available.
UV 0.0 out of 12
Pollen 4.60 out of 12
Air Quality Not available.
Flu Activity Sporadic
METAR KMSY 241853Z 17019G27KT 10SM SCT030 BKN038 BKN250 30/22 A3006

More Conditions Fewer Conditions

10-Day Weather Forecast

Almanac

Astronomy

May. 24, 2015 Rise Set
Actual Time
Civil Twilight
Nautical Twilight
Astronomical Twilight
Moon
Length of Visible Light
Length of Day
Tomorrow will be .
, % of the Moon is Illuminated

Today's Extremes

State Highs State Lows

Community

WunderPhotos

Upload Photos

1,823,832 photos uploaded!

WunderBlogs® & News

Nearby

Air Quality

  Air Quality AQ Index Pollutant
Not available.

Snow Depth

Station Depth Elevation

Earthquake Activity

City Distance Mag. Time & Date
Minimum magnitude displayed is 2.5.

Coastal Water Temperatures

Place Temperature

Stations

Nearby Weather Stations

Station Location Temp. Windchill Dew Point Humidity Wind Precip. Elev Updated Type
                   
Tornado Watch
Statement as of 2:03 PM CDT on May 24, 2015

Tornado Watch 204 remains in effect until 800 PM CDT for the
following locations

La
. Louisiana parishes included are

Acadia Allen Ascension
Assumption Avoyelles Caldwell
Catahoula Concordia East Baton Rouge
East Carroll East Feliciana Evangeline
Franklin Grant Iberia
Iberville Jefferson Jefferson Davis
Lafayette Lafourche La Salle
Livingston Madison Morehouse
Orleans Plaquemines Pointe Coupee
Rapides Richland St. Bernard
St. Charles St. Helena St. James
St. John The Baptist St. Landry St. Martin
St. Mary St. Tammany Tangipahoa
Tensas Terrebonne Vermilion
Washington West Baton Rouge West Carroll
West Feliciana Winn